FNC weather

Madeira Airport
Funchal, Autonomous Region of Madeira, Portugal

Public forecast

Using degrees Celsius for public forecast. Weather courtesy of forecast.io.

Current aviation weather report (METAR) for Madeira Airport

Retrieved 2019/10/23 09:30 UTC (8 minutes ago):

LPMA 230930Z 01003KT 300V050 9999 FEW018 SCT030 20/11 Q1020

Aviation forecast (TAF) for Madeira Airport

Retrieved 2019/10/23 06:18 UTC (3 hours ago):

TAF LPMA 230500Z 2306/2406 35008KT 9999 SCT015 TEMPO 2306/2310 VRB05KT BKN015 BECMG 2310/2312 03010KT TEMPO 2310/2406 FEW015 BKN033 BECMG 2318/2321 35005KT TEMPO 2322/2405 VRB05KT